Banyoles, Spain
Current Conditions -  °F | °C
As of 6:30 AM on Thursday 23 Oct 2014 (Local Time) from LEGE Reporting Station
Clear Clear  
Wind Chill: 48°   Ceiling: Unl
Heat Index: 48°   Visibility: 6mi
Dew Point: 43°   Wind: 2mph
Humidity: 82%   Direction: 330°NNW
Pressure: 30.15"   Gusts: NA
Location:  42.12°N, 2.77°E
Report Text: LEGE 230430Z 33002KT CAVOK 09/06 Q1021
Loading
Personal Weather Stations






























Interactive Weather Map
Tropical Storm Tracking
New forecast layout! Learn more

10-Day Weather Forecast

Advertisements
Track Severe Weather on mobile